Pretty Lady — 9HVY9 — position and weather

sailwx.info

Track history (hours):
 
Tides and Currents Weather Stations Pressure Air Temp Water Temp Dewpoint Dewpoint Depression Visibility Wind Speed Wind Dir Waves Ship Positions

Pretty Lady

Last reported at 2016-Jul-06 03:21 UTC. Time now 2016-Jul-30 07:19 UTC.
Position N 19°26' W 018°12'.
Warning: this ship's position is 24 days out of date.

Length 189 m; draft 10.6 m.

Type: Cargo ship. MMSI: 249617000.

Date/timePositionNaut miles runAvg speedWind from/ knotsBaromVisibWave heightAir tempDewpointWater temp
2016-Jul-06 03:21N 19°26' W 018°12'54113.6
2016-Jul-04 11:25N 28°03' W 015°18'6 6.9
2016-Jul-04 10:33N 28°06' W 015°24'0 0.1
2016-Jul-04 09:33N 28°06' W 015°24'0 0.0
2016-Jul-04 08:33N 28°06' W 015°24'0 0.0
2016-Jul-04 07:33N 28°06' W 015°24'0 0.0
2016-Jul-04 06:33N 28°06' W 015°24'0 0.0
2016-Jul-04 05:33N 28°06' W 015°24'0 0.0
2016-Jul-04 04:33N 28°06' W 015°24'0 0.0
2016-Jul-04 03:33N 28°06' W 015°24'0 0.0
2016-Jul-04 02:33N 28°06' W 015°24'0 0.0
2016-Jul-04 01:33N 28°06' W 015°24'0 0.0
2016-Jul-04 00:33N 28°06' W 015°24'0 0.0
2016-Jul-03 23:33N 28°06' W 015°24'0 0.0
2016-Jul-03 22:33N 28°06' W 015°24'0 0.0
2016-Jul-03 21:30N 28°06' W 015°24'0 0.0
2016-Jul-03 20:33N 28°06' W 015°24'0 0.0
2016-Jul-03 19:33N 28°06' W 015°24'0 0.1
2016-Jul-03 18:33N 28°06' W 015°24'3 3.2
2016-Jul-03 17:34N 28°07' W 015°20'1110.9
2016-Jul-03 16:33N 28°15' W 015°11'1110.7
2016-Jul-03 15:33N 28°22' W 015°03'1313.0
2016-Jul-03 14:33N 28°32' W 014°53'1413.6
2016-Jul-03 13:31N 28°42' W 014°43'1313.3
2016-Jul-03 12:31N 28°52' W 014°32'1213.0
2016-Jul-03 11:34N 29°02' W 014°23'1412.9
2016-Jul-03 10:30N 29°12' W 014°13'1412.9
2016-Jul-03 09:28N 29°22' W 014°03'58113.2
2016-Jul-01 13:24N 35°58' W 005°36'911.0
2016-Jul-01 12:33N 36°01' W 005°25'1211.6
2016-Jul-01 11:33N 36°03' W 005°12'19312.9
2016-Jun-30 20:33N 37°00' W 001°22'1313.6
2016-Jun-30 19:33N 37°09' W 001°09'1413.7
2016-Jun-30 18:33N 37°18' W 000°57'1413.6
2016-Jun-30 17:33N 37°27' W 000°44'1313.2
2016-Jun-30 16:33N 37°37' W 000°32'1312.9
2016-Jun-30 15:34N 37°49' W 000°28'1312.9
2016-Jun-30 14:34N 38°02' W 000°24'1211.6
2016-Jun-30 13:33N 38°13' W 000°24'8 0.6
2016-Jun-30 00:05N 38°20' W 000°30'0 0.0
2016-Jun-29 23:29N 38°20' W 000°30'0 0.0
2016-Jun-29 22:11N 38°20' W 000°30'0 0.0
2016-Jun-29 21:10N 38°20' W 000°30'2 0.1
2016-Jun-28 03:33N 38°18' W 000°27'  
Track history (hours):
 
Tides and Currents Weather Stations Pressure Air Temp Water Temp Dewpoint Dewpoint Depression Visibility Wind Speed Wind Dir Waves Ship Positions

Pretty Lady

Last reported at 2016-Jul-06 03:21 UTC. Time now 2016-Jul-30 07:19 UTC.
Position N 19°26' W 018°12'.
Warning: this ship's position is 24 days out of date.

Length 189 m; draft 10.6 m.

Type: Cargo ship. MMSI: 249617000.

Date/timePositionNaut miles runAvg speedWind from/ knotsBaromVisibWave heightAir tempDewpointWater temp
2016-Jul-06 03:21N 19°26' W 018°12'54113.6
2016-Jul-04 11:25N 28°03' W 015°18'6 6.9
2016-Jul-04 10:33N 28°06' W 015°24'0 0.1
2016-Jul-04 09:33N 28°06' W 015°24'0 0.0
2016-Jul-04 08:33N 28°06' W 015°24'0 0.0
2016-Jul-04 07:33N 28°06' W 015°24'0 0.0
2016-Jul-04 06:33N 28°06' W 015°24'0 0.0
2016-Jul-04 05:33N 28°06' W 015°24'0 0.0
2016-Jul-04 04:33N 28°06' W 015°24'0 0.0
2016-Jul-04 03:33N 28°06' W 015°24'0 0.0
2016-Jul-04 02:33N 28°06' W 015°24'0 0.0
2016-Jul-04 01:33N 28°06' W 015°24'0 0.0
2016-Jul-04 00:33N 28°06' W 015°24'0 0.0
2016-Jul-03 23:33N 28°06' W 015°24'0 0.0
2016-Jul-03 22:33N 28°06' W 015°24'0 0.0
2016-Jul-03 21:30N 28°06' W 015°24'0 0.0
2016-Jul-03 20:33N 28°06' W 015°24'0 0.0
2016-Jul-03 19:33N 28°06' W 015°24'0 0.1
2016-Jul-03 18:33N 28°06' W 015°24'3 3.2
2016-Jul-03 17:34N 28°07' W 015°20'1110.9
2016-Jul-03 16:33N 28°15' W 015°11'1110.7
2016-Jul-03 15:33N 28°22' W 015°03'1313.0
2016-Jul-03 14:33N 28°32' W 014°53'1413.6
2016-Jul-03 13:31N 28°42' W 014°43'1313.3
2016-Jul-03 12:31N 28°52' W 014°32'1213.0
2016-Jul-03 11:34N 29°02' W 014°23'1412.9
2016-Jul-03 10:30N 29°12' W 014°13'1412.9
2016-Jul-03 09:28N 29°22' W 014°03'58113.2
2016-Jul-01 13:24N 35°58' W 005°36'911.0
2016-Jul-01 12:33N 36°01' W 005°25'1211.6
2016-Jul-01 11:33N 36°03' W 005°12'19312.9
2016-Jun-30 20:33N 37°00' W 001°22'1313.6
2016-Jun-30 19:33N 37°09' W 001°09'1413.7
2016-Jun-30 18:33N 37°18' W 000°57'1413.6
2016-Jun-30 17:33N 37°27' W 000°44'1313.2
2016-Jun-30 16:33N 37°37' W 000°32'1312.9
2016-Jun-30 15:34N 37°49' W 000°28'1312.9
2016-Jun-30 14:34N 38°02' W 000°24'1211.6
2016-Jun-30 13:33N 38°13' W 000°24'8 0.6
2016-Jun-30 00:05N 38°20' W 000°30'0 0.0
2016-Jun-29 23:29N 38°20' W 000°30'0 0.0
2016-Jun-29 22:11N 38°20' W 000°30'0 0.0
2016-Jun-29 21:10N 38°20' W 000°30'2 0.1
2016-Jun-28 03:33N 38°18' W 000°27'  

Dump ship's entire track history